Time;durP1;ratioP1;P1;durP2;ratioP2;P2;SDS_P1;SDS_P2;PMS_P1;PMS_P2;Temp;Humidity;BMP_temperature;BMP_pressure;BME280_temperature;BME280_humidity;BME280_pressure;Samples;Min_cycle;Max_cycle;Signal;HPM_P1;HPM_P2
2022/03/25 00:00:05;;;;;;;;;58.25;44.00;;;;;13.43;32.55;102220.28;5012229;28;45807;-76
2022/03/25 00:02:30;;;;;;;;;54.25;44.75;;;;;13.39;33.12;102217.03;5033492;28;45347;-77
2022/03/25 00:04:56;;;;;;;;;58.00;42.75;;;;;13.34;32.97;102215.94;5033774;28;45729;-76
2022/03/25 00:07:22;;;;;;;;;57.25;44.75;;;;;13.35;32.82;102226.75;5033766;28;46176;-74
2022/03/25 00:09:47;;;;;;;;;54.75;41.00;;;;;13.32;32.95;102226.25;5033494;28;46265;-73
2022/03/25 00:12:13;;;;;;;;;55.75;42.75;;;;;13.28;33.14;102222.16;5033332;28;45614;-71
2022/03/25 00:14:38;;;;;;;;;48.00;37.50;;;;;13.27;33.22;102225.97;5033161;28;45464;-73
2022/03/25 00:17:04;;;;;;;;;47.00;35.75;;;;;13.27;33.30;102228.72;5039977;28;45894;-75
2022/03/25 00:19:30;;;;;;;;;48.75;39.00;;;;;13.23;33.49;102218.09;5013343;28;45660;-76
2022/03/25 00:21:55;;;;;;;;;57.75;45.00;;;;;13.20;33.64;102223.97;5013620;28;45704;-75
2022/03/25 00:24:21;;;;;;;;;54.25;41.50;;;;;13.19;33.12;102216.75;5010420;28;47116;-75
2022/03/25 00:26:46;;;;;;;;;56.00;40.00;;;;;13.12;33.24;102218.53;4993749;28;45856;-75
2022/03/25 00:29:13;;;;;;;;;51.00;40.50;;;;;13.13;33.46;102224.91;4998148;28;45857;-75
2022/03/25 00:31:39;;;;;;;;;56.50;40.50;;;;;13.10;33.58;102217.91;5013696;28;45249;-75
2022/03/25 00:34:04;;;;;;;;;55.00;41.00;;;;;13.03;33.51;102216.94;5013349;28;45436;-75
2022/03/25 00:36:30;;;;;;;;;53.50;38.50;;;;;13.04;33.33;102215.91;5012430;28;45632;-75
2022/03/25 00:38:55;;;;;;;;;57.00;43.50;;;;;13.01;33.57;102221.78;4999523;28;46408;-75
2022/03/25 00:41:22;;;;;;;;;55.00;43.00;;;;;12.97;34.08;102221.28;4992674;28;45457;-71
2022/03/25 00:43:48;;;;;;;;;50.00;39.25;;;;;12.95;33.81;102211.50;5007988;28;45716;-71
2022/03/25 00:46:15;;;;;;;;;52.00;39.25;;;;;12.91;34.29;102211.03;4992471;28;45894;-72
2022/03/25 00:48:40;;;;;;;;;55.25;41.50;;;;;12.88;33.97;102206.75;5005405;28;46888;-71
2022/03/25 00:51:06;;;;;;;;;53.75;40.75;;;;;12.91;33.66;102215.69;4992611;28;45742;-73
2022/03/25 00:53:32;;;;;;;;;57.25;41.75;;;;;12.88;34.03;102209.50;5000680;28;45583;-75
2022/03/25 00:56:01;;;;;;;;;56.00;42.25;;;;;12.88;33.92;102216.91;4994813;28;45811;-71
2022/03/25 00:58:27;;;;;;;;;53.75;42.50;;;;;12.85;33.94;102212.63;5027980;28;46660;-72
2022/03/25 01:00:53;;;;;;;;;53.50;42.00;;;;;12.84;33.94;102201.81;5012486;28;45413;-71
2022/03/25 01:03:18;;;;;;;;;55.25;43.00;;;;;12.88;34.12;102225.19;5012925;28;45674;-74
2022/03/25 01:05:43;;;;;;;;;51.75;40.25;;;;;12.86;34.08;102210.75;4993318;28;45413;-76
2022/03/25 01:08:09;;;;;;;;;56.25;42.00;;;;;12.84;34.00;102213.69;4998703;28;46363;-75
2022/03/25 01:10:36;;;;;;;;;56.00;43.50;;;;;12.86;33.84;102214.34;4993712;28;45268;-76
2022/03/25 01:13:03;;;;;;;;;51.50;42.00;;;;;12.86;33.89;102208.84;5033180;28;45532;-74
2022/03/25 01:15:29;;;;;;;;;51.50;41.75;;;;;12.86;34.53;102202.50;5032522;28;45549;-74
2022/03/25 01:17:54;;;;;;;;;60.50;42.25;;;;;12.85;33.89;102204.38;5032488;28;46856;-74
2022/03/25 01:20:20;;;;;;;;;54.00;42.00;;;;;12.86;33.87;102203.34;5012666;28;45343;-73
2022/03/25 01:22:45;;;;;;;;;57.75;43.75;;;;;12.87;33.97;102202.31;5012744;28;45648;-74
2022/03/25 01:25:11;;;;;;;;;53.50;41.75;;;;;12.85;34.37;102198.03;5012548;28;45551;-76
2022/03/25 01:27:36;;;;;;;;;54.75;43.50;;;;;12.81;34.19;102189.28;5010542;28;46613;-74
2022/03/25 01:30:04;;;;;;;;;58.25;45.75;;;;;12.80;34.63;102193.09;5011880;28;45708;-77
2022/03/25 01:32:29;;;;;;;;;56.75;42.25;;;;;12.81;34.38;102189.28;5013178;28;45407;-76
2022/03/25 01:34:55;;;;;;;;;53.75;40.50;;;;;12.79;34.26;102185.84;4994319;28;45969;-75
2022/03/25 01:37:20;;;;;;;;;57.75;42.50;;;;;12.77;34.09;102184.34;5013171;28;45861;-75
2022/03/25 01:39:45;;;;;;;;;61.75;45.75;;;;;12.75;34.43;102192.78;5012596;28;45356;-76
2022/03/25 01:42:11;;;;;;;;;55.25;42.50;;;;;12.71;34.34;102186.81;5012246;28;46019;-74
2022/03/25 01:44:37;;;;;;;;;50.75;39.00;;;;;12.71;34.53;102185.97;5012061;28;45827;-74
2022/03/25 01:47:07;;;;;;;;;56.50;44.00;;;;;12.66;34.77;102182.91;5012136;28;46311;-76
2022/03/25 01:49:33;;;;;;;;;59.00;42.75;;;;;12.59;34.92;102173.69;5011769;28;45546;-75
2022/03/25 01:52:00;;;;;;;;;56.00;43.00;;;;;12.61;34.87;102180.72;5011543;28;45763;-74
2022/03/25 01:54:31;;;;;;;;;55.00;41.25;;;;;12.61;34.70;102175.22;5011862;28;45858;-74
2022/03/25 01:57:08;;;;;;;;;51.25;41.25;;;;;12.62;34.65;102176.06;5012552;28;45488;-74
2022/03/25 01:59:35;;;;;;;;;54.25;42.25;;;;;12.61;34.52;102174.38;5027602;28;45822;-73
2022/03/25 02:02:03;;;;;;;;;53.50;41.50;;;;;12.60;34.65;102175.41;5012187;28;45410;-76
2022/03/25 02:04:29;;;;;;;;;52.25;41.75;;;;;12.59;34.92;102173.69;5012381;28;45499;-73
2022/03/25 02:06:55;;;;;;;;;54.00;42.75;;;;;12.50;34.79;102157.25;5012407;28;45615;-74
2022/03/25 02:09:21;;;;;;;;;55.25;41.25;;;;;12.59;34.71;102169.03;5013185;28;45348;-76
2022/03/25 02:11:46;;;;;;;;;58.00;43.00;;;;;12.59;34.85;102177.31;5013225;28;45614;-76
2022/03/25 02:14:12;;;;;;;;;56.00;41.00;;;;;12.59;34.62;102168.16;5010792;28;45808;-73
2022/03/25 02:16:44;;;;;;;;;57.25;42.50;;;;;12.62;34.86;102170.53;5011930;28;46414;-77
2022/03/25 02:19:18;;;;;;;;;55.50;44.75;;;;;12.58;34.53;102159.06;5007051;28;45472;-75
2022/03/25 02:21:44;;;;;;;;;54.25;42.00;;;;;12.63;34.53;102169.50;4975317;28;45430;-72
2022/03/25 02:24:11;;;;;;;;;55.00;41.00;;;;;12.68;34.70;102178.09;4992496;28;45761;-72
2022/03/25 02:26:37;;;;;;;;;56.25;42.00;;;;;12.69;34.64;102177.91;4991832;28;45778;-74
2022/03/25 02:29:04;;;;;;;;;60.75;41.50;;;;;12.70;34.29;102170.47;5004129;28;45398;-73
2022/03/25 02:31:29;;;;;;;;;50.50;41.00;;;;;12.71;34.68;102178.53;5012400;28;45813;-75
2022/03/25 02:34:08;;;;;;;;;55.75;44.00;;;;;12.74;34.17;102173.69;5026287;28;47091;-73
2022/03/25 02:36:38;;;;;;;;;53.50;39.50;;;;;12.77;34.06;102178.81;5009952;28;46587;-73
2022/03/25 02:39:08;;;;;;;;;56.50;43.25;;;;;12.78;34.29;102175.88;5011016;28;45483;-74
2022/03/25 02:41:33;;;;;;;;;52.00;40.00;;;;;12.76;34.13;102166.97;5011585;28;45882;-74
2022/03/25 02:43:59;;;;;;;;;52.25;41.75;;;;;12.80;34.40;102179.31;5011253;28;45879;-72
2022/03/25 02:46:25;;;;;;;;;57.00;44.00;;;;;12.81;34.10;102175.50;5011398;28;45414;-70
2022/03/25 02:48:51;;;;;;;;;53.00;41.75;;;;;12.82;34.50;102165.38;5014355;28;45722;-73
2022/03/25 02:51:16;;;;;;;;;54.50;41.00;;;;;12.80;34.20;102173.81;5013647;28;45476;-73
2022/03/25 02:53:42;;;;;;;;;56.25;41.25;;;;;12.80;34.25;102178.44;5014078;28;45516;-72
2022/03/25 02:56:07;;;;;;;;;51.25;39.00;;;;;12.77;34.48;102174.19;5014396;28;45505;-72
2022/03/25 02:58:33;;;;;;;;;52.25;41.25;;;;;12.75;34.93;102175.41;5014683;28;45869;-72
2022/03/25 03:00:58;;;;;;;;;55.75;43.25;;;;;12.73;34.47;102178.34;5014799;28;45655;-72
2022/03/25 03:03:24;;;;;;;;;51.25;41.75;;;;;12.71;34.48;102185.97;5015092;28;45683;-72
2022/03/25 03:05:50;;;;;;;;;56.00;41.75;;;;;12.67;34.52;102181.88;5012988;28;47124;-73
2022/03/25 03:08:15;;;;;;;;;52.25;37.50;;;;;12.65;34.89;102176.56;5014583;28;45776;-72
2022/03/25 03:10:42;;;;;;;;;56.75;42.00;;;;;12.64;35.07;102185.84;5014619;28;45500;-72
2022/03/25 03:13:08;;;;;;;;;51.75;36.25;;;;;12.63;34.96;102186.88;5014326;28;46323;-73
2022/03/25 03:15:34;;;;;;;;;53.50;41.00;;;;;12.59;35.00;102176.44;5014055;28;45769;-73
2022/03/25 03:17:59;;;;;;;;;59.00;42.00;;;;;12.58;35.38;102180.25;5014475;28;45828;-74
2022/03/25 03:20:25;;;;;;;;;55.00;39.50;;;;;12.54;35.17;102197.13;5014851;28;45364;-71
2022/03/25 03:22:51;;;;;;;;;57.50;41.25;;;;;12.50;35.35;102183.91;4996774;28;47002;-73
2022/03/25 03:25:16;;;;;;;;;49.00;38.75;;;;;12.49;35.46;102179.47;5014277;28;46396;-73
2022/03/25 03:27:42;;;;;;;;;54.75;41.50;;;;;12.48;35.43;102181.34;5013624;28;45682;-72
2022/03/25 03:30:09;;;;;;;;;53.50;40.00;;;;;12.46;35.81;102188.94;5013282;28;45806;-71
2022/03/25 03:32:36;;;;;;;;;53.25;40.25;;;;;12.43;35.98;102186.56;5013491;28;45746;-71
2022/03/25 03:35:02;;;;;;;;;56.50;43.25;;;;;12.36;35.96;102178.19;5014074;28;45823;-75
2022/03/25 03:37:28;;;;;;;;;53.75;42.75;;;;;12.34;36.37;102173.91;5014438;28;45378;-75
2022/03/25 03:39:54;;;;;;;;;41.50;34.75;;;;;12.35;35.94;102173.72;5014358;28;45632;-75
2022/03/25 03:42:19;;;;;;;;;59.75;43.00;;;;;12.34;36.03;102177.50;4996526;28;46972;-72
2022/03/25 03:44:45;;;;;;;;;48.75;39.50;;;;;12.31;36.61;102169.63;5006472;28;45671;-73
2022/03/25 03:47:11;;;;;;;;;49.50;39.25;;;;;12.28;36.29;102169.16;5014252;28;45350;-73
2022/03/25 03:49:38;;;;;;;;;49.25;38.25;;;;;12.27;36.24;102172.94;5011525;28;45518;-72
2022/03/25 03:52:04;;;;;;;;;55.75;41.75;;;;;12.26;36.65;102171.22;5014078;28;45525;-72
2022/03/25 03:54:31;;;;;;;;;49.25;39.50;;;;;12.25;36.44;102175.03;4997836;28;45802;-75
2022/03/25 03:56:56;;;;;;;;;57.00;42.50;;;;;12.20;36.52;102167.34;5013189;28;45771;-72
2022/03/25 03:59:22;;;;;;;;;54.50;40.75;;;;;12.18;36.64;102173.03;5013623;28;45485;-75
2022/03/25 04:01:48;;;;;;;;;57.75;43.25;;;;;12.16;36.79;102168.75;5013787;28;45514;-73
2022/03/25 04:04:14;;;;;;;;;55.75;43.25;;;;;12.14;36.70;102168.94;5013534;28;45498;-72
2022/03/25 04:06:39;;;;;;;;;56.75;44.25;;;;;12.07;36.96;102162.44;5013497;28;45520;-73
2022/03/25 04:09:05;;;;;;;;;49.00;39.00;;;;;12.14;36.87;102177.19;5013877;28;45260;-71
2022/03/25 04:11:30;;;;;;;;;54.25;41.25;;;;;12.13;37.08;102169.13;5013687;28;45660;-72
2022/03/25 04:13:55;;;;;;;;;46.75;37.25;;;;;12.12;36.86;102176.50;5013183;28;45430;-73
2022/03/25 04:16:24;;;;;;;;;56.00;43.50;;;;;12.13;37.12;102178.22;5013125;28;45672;-73
2022/03/25 04:18:49;;;;;;;;;53.00;41.50;;;;;12.12;37.03;102173.75;5013331;28;45746;-73
2022/03/25 04:21:15;;;;;;;;;54.75;42.50;;;;;12.12;37.56;102176.50;5011961;28;45899;-73
2022/03/25 04:23:41;;;;;;;;;56.00;43.00;;;;;12.09;37.46;102182.34;5013577;28;46378;-75
2022/03/25 04:26:06;;;;;;;;;53.50;42.00;;;;;12.09;37.80;102182.34;5013436;28;45586;-75
2022/03/25 04:28:32;;;;;;;;;48.25;36.50;;;;;12.09;38.12;102182.34;5013422;28;45619;-76
2022/03/25 04:30:58;;;;;;;;;53.00;41.00;;;;;12.05;38.95;102178.28;5013165;28;46020;-75
2022/03/25 04:33:24;;;;;;;;;54.50;42.00;;;;;12.03;38.91;102187.75;4995848;28;45735;-75
2022/03/25 04:35:49;;;;;;;;;49.25;39.50;;;;;12.01;39.27;102188.78;5013757;28;45380;-78
2022/03/25 04:38:15;;;;;;;;;52.50;39.75;;;;;11.94;39.30;102179.53;4996347;28;45488;-75
2022/03/25 04:40:41;;;;;;;;;56.75;43.00;;;;;11.94;38.97;102195.19;5012454;28;46339;-73
2022/03/25 04:43:06;;;;;;;;;53.25;44.00;;;;;11.87;39.01;102191.44;5013032;28;46967;-73
2022/03/25 04:45:32;;;;;;;;;53.25;42.25;;;;;11.89;39.11;102197.63;4994961;28;45645;-72
2022/03/25 04:47:57;;;;;;;;;57.25;43.25;;;;;11.87;39.34;102196.91;5012859;28;45811;-72
2022/03/25 04:50:24;;;;;;;;;51.00;40.50;;;;;11.83;39.09;102194.53;5012709;28;45696;-75
2022/03/25 04:52:49;;;;;;;;;53.00;39.75;;;;;11.81;38.75;102198.50;5012258;28;45827;-73
2022/03/25 04:55:18;;;;;;;;;60.50;44.75;;;;;11.81;39.33;102204.00;5012563;28;45535;-74
2022/03/25 04:57:44;;;;;;;;;52.75;40.00;;;;;11.79;40.08;102197.84;5012581;28;45734;-73
2022/03/25 05:00:10;;;;;;;;;50.75;40.25;;;;;11.76;40.12;102204.53;5012102;28;45676;-74
2022/03/25 05:02:36;;;;;;;;;51.75;40.00;;;;;11.76;40.65;102203.69;5012306;28;45402;-72
2022/03/25 05:05:02;;;;;;;;;50.50;39.75;;;;;11.73;40.42;102213.16;5012533;28;45748;-73
2022/03/25 05:07:28;;;;;;;;;51.25;39.75;;;;;11.67;40.69;102208.38;5013002;28;45438;-73
2022/03/25 05:09:57;;;;;;;;;52.00;38.25;;;;;11.63;40.46;102204.28;5011597;28;45791;-73
2022/03/25 05:12:22;;;;;;;;;54.75;40.75;;;;;11.60;40.73;102210.13;5012506;28;45383;-75
2022/03/25 05:14:48;;;;;;;;;56.00;40.50;;;;;11.55;40.81;102212.56;5012504;28;45335;-74
2022/03/25 05:17:13;;;;;;;;;54.50;42.50;;;;;11.57;40.61;102226.97;5012780;28;45666;-78
2022/03/25 05:19:39;;;;;;;;;54.75;43.00;;;;;11.53;40.72;102217.41;5012740;28;45489;-73
2022/03/25 05:22:04;;;;;;;;;53.25;39.50;;;;;11.48;41.05;102221.53;5012638;28;45759;-76
2022/03/25 05:24:30;;;;;;;;;50.00;39.00;;;;;11.46;41.50;102226.34;4998659;28;45793;-76
2022/03/25 05:26:59;;;;;;;;;58.25;44.00;;;;;11.45;41.65;102223.75;4993175;28;45626;-75
2022/03/25 05:29:25;;;;;;;;;58.50;43.50;;;;;11.42;41.41;102219.50;4991840;28;45904;-75
2022/03/25 05:31:51;;;;;;;;;53.25;41.00;;;;;11.37;42.17;102221.91;4993635;28;45827;-75
2022/03/25 05:34:16;;;;;;;;;66.00;48.50;;;;;11.35;42.73;102223.13;4993853;28;45653;-77
2022/03/25 05:36:42;;;;;;;;;62.00;49.50;;;;;11.33;42.12;102215.06;4993602;28;45742;-76
2022/03/25 05:39:08;;;;;;;;;62.50;46.25;;;;;11.32;41.76;102213.38;4993504;28;45714;-76
2022/03/25 05:41:34;;;;;;;;;58.25;44.50;;;;;11.33;42.25;102226.03;4975035;28;47642;-73
2022/03/25 05:43:59;;;;;;;;;57.75;45.00;;;;;11.31;42.33;102212.47;4995905;28;45331;-75
2022/03/25 05:46:26;;;;;;;;;54.50;43.50;;;;;11.31;41.95;102225.38;5009559;28;45730;-75
2022/03/25 05:48:52;;;;;;;;;60.00;46.25;;;;;11.31;42.24;102217.13;5012414;28;45696;-76
2022/03/25 05:51:17;;;;;;;;;57.50;42.50;;;;;11.32;41.77;102227.09;5008933;28;46558;-74
2022/03/25 05:53:43;;;;;;;;;58.00;43.25;;;;;11.35;42.52;102226.75;5009173;28;45359;-73
2022/03/25 05:56:10;;;;;;;;;59.25;44.75;;;;;11.39;42.19;102225.34;4989775;28;45368;-73
2022/03/25 05:58:35;;;;;;;;;50.75;40.00;;;;;11.48;42.03;102235.28;5005163;28;45514;-76
2022/03/25 06:01:02;;;;;;;;;56.00;43.00;;;;;11.63;41.66;102240.00;5003173;28;46303;-73
2022/03/25 06:03:28;;;;;;;;;49.25;40.00;;;;;11.77;41.49;102231.00;4996908;28;45782;-74
2022/03/25 06:05:53;;;;;;;;;56.50;40.00;;;;;11.95;41.33;102238.16;5021761;28;45790;-76
2022/03/25 06:10:59;;;;;;;;;54.50;41.50;;;;;12.39;40.32;102234.72;5046571;23;46646;-73
2022/03/25 06:13:28;;;;;;;;;51.25;39.25;;;;;12.54;40.46;102240.28;5051306;28;45509;-72
2022/03/25 06:15:55;;;;;;;;;61.25;46.75;;;;;12.58;40.32;102240.78;5015344;28;45350;-74
2022/03/25 06:18:21;;;;;;;;;51.25;39.00;;;;;12.63;40.33;102238.31;5041731;28;45610;-72
2022/03/25 06:20:47;;;;;;;;;52.50;42.25;;;;;12.74;39.88;102245.28;5045343;28;46071;-76
2022/03/25 06:23:13;;;;;;;;;55.75;43.25;;;;;12.95;40.04;102256.44;5049963;28;45781;-77
2022/03/25 06:25:39;;;;;;;;;53.00;41.25;;;;;13.23;39.10;102253.03;5053165;28;45733;-75
2022/03/25 06:28:07;;;;;;;;;47.00;39.00;;;;;13.44;38.89;102251.44;5054732;28;45488;-78
2022/03/25 06:30:38;;;;;;;;;58.75;42.50;;;;;13.52;38.79;102249.44;5036425;28;47531;-71
2022/03/25 06:33:06;;;;;;;;;55.50;44.25;;;;;13.59;38.19;102252.28;5047082;28;45543;-71
2022/03/25 06:35:31;;;;;;;;;51.50;39.25;;;;;13.89;37.59;102257.75;5038629;28;45851;-71
2022/03/25 06:37:57;;;;;;;;;56.75;45.50;;;;;14.35;37.28;102254.66;5054901;28;45561;-71
2022/03/25 06:40:24;;;;;;;;;64.75;48.75;;;;;14.90;37.02;102254.13;5048651;28;45624;-72
2022/03/25 06:42:53;;;;;;;;;56.50;43.75;;;;;15.43;34.96;102254.44;5035555;28;45689;-73
2022/03/25 06:45:18;;;;;;;;;63.50;46.00;;;;;16.06;33.64;102257.09;5034692;28;45475;-74
2022/03/25 06:47:45;;;;;;;;;53.25;45.00;;;;;16.55;32.87;102260.56;5044201;28;45407;-73
2022/03/25 06:50:15;;;;;;;;;60.00;48.00;;;;;17.08;31.40;102259.75;5068900;28;45503;-74
2022/03/25 06:52:41;;;;;;;;;61.50;47.00;;;;;17.60;31.61;102264.53;5054457;28;45702;-72
2022/03/25 06:55:10;;;;;;;;;57.75;42.50;;;;;18.12;30.56;102267.31;5037390;28;45401;-72
2022/03/25 06:57:36;;;;;;;;;55.50;39.75;;;;;18.59;29.74;102264.22;5055107;28;45831;-75
2022/03/25 07:00:04;;;;;;;;;54.25;42.25;;;;;19.12;28.91;102263.81;5053214;28;46258;-71
2022/03/25 07:02:30;;;;;;;;;62.50;44.00;;;;;19.55;28.13;102275.94;5165345;22;45308;-81
2022/03/25 07:04:55;;;;;;;;;54.00;42.25;;;;;19.88;27.56;102253.31;5034059;28;45498;-81
2022/03/25 07:07:25;;;;;;;;;56.25;43.00;;;;;20.47;27.07;102241.53;5025551;28;45818;-74
2022/03/25 07:09:51;;;;;;;;;54.00;42.00;;;;;21.11;25.92;102260.44;5048648;28;46326;-83
2022/03/25 07:12:17;;;;;;;;;54.67;42.67;;;;;21.52;25.44;102253.84;5053542;28;45618;-81
2022/03/25 07:14:43;;;;;;;;;57.25;41.50;;;;;21.85;24.87;102269.06;5042638;28;45896;-81
2022/03/25 07:17:12;;;;;;;;;59.00;43.50;;;;;21.92;24.65;102271.72;5047786;28;45772;-81
2022/03/25 07:19:37;;;;;;;;;57.33;41.67;;;;;22.42;24.08;102272.13;5053291;28;46016;-74
2022/03/25 07:22:03;;;;;;;;;47.33;38.33;;;;;22.91;23.45;102269.63;5035400;28;45872;-74
2022/03/25 07:24:32;;;;;;;;;51.67;42.00;;;;;23.32;22.83;102278.66;5042397;28;45724;-74
2022/03/25 07:26:57;;;;;;;;;60.00;42.33;;;;;23.16;22.38;102262.75;5056033;28;45916;-82
2022/03/25 07:29:23;;;;;;;;;53.33;39.00;;;;;23.51;22.23;102273.63;5055911;28;46063;-80
2022/03/25 07:31:48;;;;;;;;;54.33;40.00;;;;;23.44;22.20;102284.16;5054527;28;45693;-80
2022/03/25 07:34:14;;;;;;;;;60.67;44.33;;;;;22.68;22.50;102288.28;5050462;28;45949;-75
2022/03/25 07:36:41;;;;;;;;;56.67;44.00;;;;;21.85;23.09;102283.03;5059930;28;45343;-83
2022/03/25 07:39:07;;;;;;;;;51.33;39.67;;;;;20.92;23.90;102277.25;5052168;28;47624;-83
2022/03/25 07:41:34;;;;;;;;;56.33;41.33;;;;;20.29;24.74;102301.81;5043757;28;45715;-80
2022/03/25 07:44:00;;;;;;;;;57.33;44.67;;;;;19.64;25.17;102310.78;5022023;28;45480;-80
2022/03/25 07:46:27;;;;;;;;;58.75;44.75;;;;;18.98;26.04;102298.34;5052290;28;45570;-81
2022/03/25 07:48:52;;;;;;;;;58.00;42.00;;;;;18.46;27.32;102304.94;5033379;28;47113;-83
2022/03/25 07:51:19;;;;;;;;;52.75;42.00;;;;;17.85;27.75;102286.84;5034711;28;45778;-83
2022/03/25 07:53:45;;;;;;;;;55.75;41.25;;;;;17.56;28.43;102307.63;5020005;28;45776;-83
2022/03/25 07:56:11;;;;;;;;;59.00;41.25;;;;;17.31;28.28;102313.06;5056548;28;45306;-78
2022/03/25 07:58:37;;;;;;;;;56.00;39.75;;;;;16.95;29.13;102298.56;5047509;28;44997;-78
2022/03/25 08:01:03;;;;;;;;;62.50;48.50;;;;;16.69;29.67;102304.91;5051526;28;45832;-80
2022/03/25 08:03:30;;;;;;;;;57.00;43.50;;;;;16.55;30.16;102306.81;5051223;28;45801;-81
2022/03/25 08:05:56;;;;;;;;;58.75;45.00;;;;;16.40;30.09;102313.38;5046972;28;45833;-79
2022/03/25 08:08:22;;;;;;;;;60.00;42.50;;;;;16.24;30.82;102314.63;5033910;28;48461;-79
2022/03/25 08:10:49;;;;;;;;;57.50;41.50;;;;;16.19;30.87;102317.16;5050030;28;45442;-79
2022/03/25 08:13:16;;;;;;;;;56.00;45.00;;;;;16.13;30.94;102314.38;5047459;28;45885;-78
2022/03/25 08:15:41;;;;;;;;;65.50;46.00;;;;;16.11;31.04;102319.25;5044793;28;45752;-78
2022/03/25 08:18:13;;;;;;;;;65.75;50.25;;;;;16.04;31.02;102308.16;5034054;28;45947;-79
2022/03/25 08:20:43;;;;;;;;;64.75;47.75;;;;;16.01;31.32;102316.88;5033820;28;45607;-78
2022/03/25 08:28:57;;;;;;;;;68.75;50.75;;;;;15.83;31.20;102310.00;5053014;28;45871;-78
2022/03/25 08:31:23;;;;;;;;;64.75;49.50;;;;;15.83;30.93;102312.75;5052137;28;45810;-78
2022/03/25 08:33:49;;;;;;;;;70.50;49.25;;;;;15.91;31.44;102317.25;5050695;28;45054;-82
2022/03/25 08:36:17;;;;;;;;;68.75;49.75;;;;;15.90;31.38;102323.88;5035788;28;45976;-77
2022/03/25 08:38:44;;;;;;;;;58.00;43.75;;;;;15.95;31.12;102326.03;5051973;28;45874;-79
2022/03/25 08:41:09;;;;;;;;;61.50;46.00;;;;;16.02;31.19;102324.13;5051118;28;45477;-78
2022/03/25 08:43:35;;;;;;;;;71.75;53.50;;;;;16.09;31.31;102324.16;5034566;28;45846;-78
2022/03/25 08:46:01;;;;;;;;;63.25;48.25;;;;;16.16;31.26;102325.03;5037015;28;45753;-76
2022/03/25 08:48:27;;;;;;;;;61.25;46.75;;;;;16.16;31.04;102328.66;5034800;28;47548;-75
2022/03/25 08:50:53;;;;;;;;;72.00;52.00;;;;;16.15;31.00;102326.09;5036194;28;45432;-77
2022/03/25 08:53:19;;;;;;;;;59.75;46.00;;;;;16.11;30.73;102308.19;5038625;28;45875;-77
2022/03/25 08:55:45;;;;;;;;;65.00;52.00;;;;;16.15;30.51;102315.88;5049723;28;45612;-77
2022/03/25 08:58:11;;;;;;;;;60.75;48.75;;;;;16.26;30.51;102327.41;5051342;28;45824;-77
2022/03/25 09:00:37;;;;;;;;;70.00;50.75;;;;;16.18;30.60;102303.53;5035387;28;45889;-77
2022/03/25 09:03:03;;;;;;;;;58.75;45.75;;;;;16.37;30.11;102316.56;5055802;28;45729;-83
2022/03/25 09:05:28;;;;;;;;;65.50;47.25;;;;;16.44;29.75;102329.56;5028987;28;45953;-81
2022/03/25 09:07:54;;;;;;;;;53.00;41.75;;;;;16.50;30.29;102320.44;5035272;28;47336;-83
2022/03/25 09:10:19;;;;;;;;;56.75;46.25;;;;;16.54;30.88;102322.59;5055379;28;45505;-83
2022/03/25 09:12:45;;;;;;;;;64.50;50.25;;;;;16.52;29.73;102310.00;5041948;28;45732;-82
2022/03/25 09:15:13;;;;;;;;;57.50;45.25;;;;;16.75;30.44;102327.09;5018882;28;46437;-78
2022/03/25 09:17:40;;;;;;;;;58.50;45.00;;;;;17.04;29.58;102305.59;5044278;28;47444;-83
2022/03/25 09:20:06;;;;;;;;;59.00;44.75;;;;;18.21;28.38;102318.75;5038778;28;45480;-80
2022/03/25 09:22:34;;;;;;;;;63.00;42.50;;;;;19.61;27.41;102305.66;5048952;28;45557;-81
2022/03/25 09:25:01;;;;;;;;;61.75;44.75;;;;;20.97;24.81;102308.09;5034904;28;46363;-82
2022/03/25 09:27:26;;;;;;;;;57.50;46.50;;;;;22.29;23.43;102318.84;5037654;28;45796;-83
2022/03/25 09:29:52;;;;;;;;;63.00;44.50;;;;;23.52;22.43;102308.94;5036466;28;45760;-82
2022/03/25 09:32:18;;;;;;;;;63.50;46.25;;;;;24.64;20.85;102304.97;5019556;28;45441;-82
2022/03/25 09:37:30;;;;;;;;;68.75;48.50;;;;;26.27;19.20;102299.81;5057122;28;45790;-82
2022/03/25 09:39:55;;;;;;;;;57.33;47.00;;;;;26.95;18.42;102300.47;5058197;28;45684;-83
2022/03/25 09:42:21;;;;;;;;;56.00;44.67;;;;;27.69;17.46;102316.13;5058194;28;45664;-82
2022/03/25 09:44:48;;;;;;;;;55.67;42.67;;;;;28.21;17.51;102306.34;5055262;28;46217;-77
2022/03/25 09:47:16;;;;;;;;;71.75;50.50;;;;;28.66;17.00;102286.59;5050530;28;45769;-78
2022/03/25 09:49:42;;;;;;;;;59.50;47.50;;;;;29.29;16.60;102310.34;5029940;28;45945;-82
2022/03/25 09:52:08;;;;;;;;;61.67;47.67;;;;;29.67;16.18;102308.50;5035588;28;45771;-82
2022/03/25 09:54:43;;;;;;;;;60.00;48.00;;;;;29.99;15.98;102298.50;5037609;28;45635;-78
2022/03/25 09:57:08;;;;;;;;;62.33;48.00;;;;;30.22;15.43;102293.09;5038042;28;45830;-77
2022/03/25 09:59:33;;;;;;;;;60.67;45.33;;;;;30.35;15.31;102295.16;5043346;28;45701;-79
2022/03/25 10:01:59;;;;;;;;;60.00;44.33;;;;;30.76;15.04;102296.50;5042781;28;46226;-78
2022/03/25 10:04:42;;;;;;;;;57.33;45.33;;;;;30.93;15.05;102295.91;5044528;28;46417;-78
2022/03/25 10:07:28;;;;;;;;;58.00;44.67;;;;;31.08;14.67;102292.88;5037496;28;45676;-78
2022/03/25 10:10:14;;;;;;;;;58.67;47.00;;;;;31.28;14.28;102296.47;5023459;28;45806;-80
2022/03/25 10:12:43;;;;;;;;;59.00;46.33;;;;;31.27;14.28;102298.44;5048487;28;45392;-80
2022/03/25 10:15:25;;;;;;;;;57.33;45.00;;;;;31.41;14.17;102300.44;5030533;28;46238;-77
2022/03/25 10:18:02;;;;;;;;;56.33;44.00;;;;;31.44;14.41;102292.19;5049302;28;45824;-79
2022/03/25 10:20:32;;;;;;;;;60.00;47.00;;;;;31.51;13.76;102286.94;5032568;28;45538;-79
2022/03/25 10:23:01;;;;;;;;;61.25;45.75;;;;;31.42;13.78;102279.47;5050867;28;45642;-79
2022/03/25 10:25:48;;;;;;;;;54.50;40.00;;;;;31.24;13.95;102281.22;5050829;28;46044;-78
2022/03/25 10:28:26;;;;;;;;;58.50;46.50;;;;;31.40;14.27;102287.44;5048095;28;46101;-77
2022/03/25 10:31:04;;;;;;;;;64.00;46.75;;;;;31.43;13.83;102286.81;5016206;28;45548;-78
2022/03/25 10:33:31;;;;;;;;;58.00;46.25;;;;;31.25;14.17;102292.25;5038827;28;45972;-79
2022/03/25 10:36:01;;;;;;;;;59.67;47.00;;;;;31.02;14.06;102282.78;5042768;28;45613;-84
2022/03/25 10:38:43;;;;;;;;;65.25;48.25;;;;;30.91;14.12;102281.25;5043577;28;45637;-82
2022/03/25 10:41:10;;;;;;;;;63.00;47.00;;;;;30.77;14.06;102284.88;5014908;28;45748;-83
2022/03/25 10:44:04;;;;;;;;;56.67;44.67;;;;;30.65;14.24;102280.84;5049881;28;45478;-84
2022/03/25 10:46:32;;;;;;;;;56.33;45.00;;;;;30.54;14.59;102266.00;5057015;28;45572;-83
2022/03/25 10:49:03;;;;;;;;;59.33;45.33;;;;;30.48;14.35;102275.72;5058620;28;46114;-83
2022/03/25 10:51:29;;;;;;;;;58.00;43.00;;;;;30.31;14.17;102277.09;5048749;28;45414;-81
2022/03/25 10:54:00;;;;;;;;;58.00;45.00;;;;;30.28;14.54;102274.88;5063401;28;44792;-83
2022/03/25 10:56:26;;;;;;;;;60.75;47.50;;;;;29.93;14.80;102241.13;5061025;28;45428;-83
2022/03/25 10:59:01;;;;;;;;;60.00;45.33;;;;;29.81;15.00;102251.22;5072003;28;47676;-82
2022/03/25 11:01:27;;;;;;;;;60.33;48.00;;;;;29.70;14.21;102288.09;5053672;28;46123;-83
2022/03/25 11:03:52;;;;;;;;;61.00;47.33;;;;;29.26;14.56;102258.06;5039981;28;45983;-83
2022/03/25 11:06:18;;;;;;;;;53.00;39.67;;;;;28.86;14.36;102258.19;5037296;28;45542;-83
2022/03/25 11:08:45;;;;;;;;;60.00;47.67;;;;;28.48;14.84;102271.16;5049980;28;45762;-84
2022/03/25 11:11:14;;;;;;;;;63.25;47.00;;;;;27.98;15.27;102262.72;5051840;28;45627;-84
2022/03/25 11:13:39;;;;;;;;;63.33;48.33;;;;;27.63;15.32;102276.66;5039052;28;45684;-83
2022/03/25 11:16:08;;;;;;;;;61.00;45.33;;;;;26.88;15.27;102226.69;5036812;28;45424;-82
2022/03/25 11:18:35;;;;;;;;;58.33;45.00;;;;;26.71;15.82;102276.84;5023647;28;47066;-83